createdAt,value
2022-12-11T00:02:04.610Z,1.51
2022-12-11T00:04:32.269Z,1.49
2022-12-11T00:06:59.019Z,1.50
2022-12-11T00:09:25.838Z,1.35
2022-12-11T00:11:52.535Z,1.44
2022-12-11T00:14:19.394Z,1.53
2022-12-11T00:16:48.065Z,1.43
2022-12-11T00:19:15.245Z,1.47
2022-12-11T00:21:42.448Z,1.43
2022-12-11T00:24:09.297Z,1.57
2022-12-11T00:26:35.813Z,1.58
2022-12-11T00:29:02.670Z,1.56
2022-12-11T00:31:29.486Z,1.59
2022-12-11T00:33:56.388Z,1.55
2022-12-11T00:36:25.469Z,1.53
2022-12-11T00:38:53.917Z,1.56
2022-12-11T00:41:20.956Z,1.48
2022-12-11T00:43:47.932Z,1.65
2022-12-11T00:46:14.809Z,1.46
2022-12-11T00:48:41.724Z,1.59
2022-12-11T00:51:08.329Z,1.58
2022-12-11T00:53:35.201Z,1.53
2022-12-11T00:56:02.067Z,1.49
2022-12-11T00:58:28.983Z,1.59
2022-12-11T01:00:55.934Z,1.65
2022-12-11T01:03:22.894Z,1.60
2022-12-11T01:05:54.123Z,1.64
2022-12-11T01:08:21.044Z,1.61
2022-12-11T01:10:47.793Z,1.61
2022-12-11T01:13:14.732Z,1.57
2022-12-11T01:15:44.524Z,1.57
2022-12-11T01:18:13.847Z,1.54
2022-12-11T01:20:41.219Z,1.55
2022-12-11T01:23:08.339Z,1.55
2022-12-11T01:25:36.027Z,1.54
2022-12-11T01:28:02.695Z,1.57
2022-12-11T01:30:29.713Z,1.51
2022-12-11T01:32:56.426Z,1.47
2022-12-11T01:35:23.267Z,1.43
2022-12-11T01:37:50.087Z,1.48
2022-12-11T01:40:19.083Z,1.43
2022-12-11T01:42:46.197Z,1.49
2022-12-11T01:45:23.835Z,1.54
2022-12-11T01:47:57.020Z,1.56
2022-12-11T01:50:24.399Z,1.53
2022-12-11T01:52:51.285Z,1.54
2022-12-11T01:55:19.323Z,1.52
2022-12-11T01:57:49.072Z,1.58
2022-12-11T02:00:23.560Z,1.57
2022-12-11T02:02:50.345Z,1.56
2022-12-11T02:05:17.166Z,1.54
2022-12-11T02:07:48.003Z,1.53
2022-12-11T02:10:15.233Z,1.53
2022-12-11T02:12:59.783Z,1.63
2022-12-11T02:15:42.149Z,1.51
2022-12-11T02:18:31.248Z,1.63
2022-12-11T02:21:26.533Z,1.63
2022-12-11T02:24:16.198Z,1.61
2022-12-11T02:26:51.938Z,1.71
2022-12-11T02:29:23.345Z,1.68
2022-12-11T02:32:20.956Z,1.75
2022-12-11T02:34:58.092Z,1.77
2022-12-11T02:37:28.330Z,1.73
2022-12-11T02:39:55.987Z,1.80
2022-12-11T02:42:25.787Z,1.73
2022-12-11T02:44:53.416Z,1.81
2022-12-11T02:47:21.321Z,1.82
2022-12-11T02:49:50.228Z,1.81
2022-12-11T02:52:19.465Z,1.79
2022-12-11T02:54:47.209Z,1.83
2022-12-11T02:57:26.143Z,1.96
2022-12-11T02:59:53.051Z,1.96
2022-12-11T03:02:20.265Z,1.99
2022-12-11T03:04:47.708Z,1.88
2022-12-11T03:07:23.457Z,2.00
2022-12-11T03:09:50.812Z,1.71
2022-12-11T03:12:21.644Z,1.67
2022-12-11T03:14:49.076Z,1.60
2022-12-11T03:17:20.063Z,1.56
2022-12-11T03:19:53.792Z,1.53
2022-12-11T03:22:35.834Z,1.53
2022-12-11T03:25:17.063Z,1.49
2022-12-11T03:27:57.539Z,1.60
2022-12-11T03:30:25.568Z,1.69
2022-12-11T03:32:58.824Z,1.52
2022-12-11T03:35:43.627Z,1.46
2022-12-11T03:38:17.410Z,1.46
2022-12-11T03:40:46.839Z,1.37
2022-12-11T03:43:13.822Z,1.42
2022-12-11T03:45:41.444Z,1.57
2022-12-11T03:48:09.632Z,1.56
2022-12-11T03:50:37.037Z,1.46
2022-12-11T03:53:04.406Z,1.42
2022-12-11T03:55:33.110Z,1.47
2022-12-11T03:57:59.863Z,1.45
2022-12-11T04:00:26.911Z,1.45
2022-12-11T04:03:13.906Z,1.40
2022-12-11T04:05:47.114Z,1.39
2022-12-11T04:08:14.156Z,1.44
2022-12-11T04:10:41.193Z,1.49
2022-12-11T04:13:08.907Z,1.49
2022-12-11T04:15:36.420Z,1.41
2022-12-11T04:18:22.457Z,1.44
2022-12-11T04:21:07.916Z,1.39
2022-12-11T04:23:53.224Z,1.37
2022-12-11T04:26:20.794Z,1.57
2022-12-11T04:28:48.328Z,1.73
2022-12-11T04:31:18.158Z,1.77
2022-12-11T04:33:44.945Z,1.61
2022-12-11T04:36:12.072Z,1.67
2022-12-11T04:38:39.042Z,1.56
2022-12-11T04:41:08.525Z,1.61
2022-12-11T04:43:35.710Z,1.54
2022-12-11T04:46:30.040Z,1.60
2022-12-11T04:48:57.931Z,1.60
2022-12-11T04:51:25.310Z,1.55
2022-12-11T04:53:52.347Z,1.68
2022-12-11T04:56:19.078Z,1.64
2022-12-11T04:58:46.512Z,1.68
2022-12-11T05:01:22.643Z,1.65
2022-12-11T05:03:49.511Z,1.66
2022-12-11T05:06:16.680Z,1.67
2022-12-11T05:08:45.268Z,1.60
2022-12-11T05:11:14.320Z,1.61
2022-12-11T05:13:41.284Z,1.60
2022-12-11T05:16:12.189Z,1.60
2022-12-11T05:18:39.173Z,1.66
2022-12-11T05:21:08.740Z,1.63
2022-12-11T05:23:35.861Z,1.58
2022-12-11T05:26:05.919Z,1.61
2022-12-11T05:28:35.276Z,1.69
2022-12-11T05:31:05.111Z,1.73
2022-12-11T05:33:32.135Z,1.72
2022-12-11T05:35:58.938Z,1.51
2022-12-11T05:38:25.837Z,1.30
2022-12-11T05:41:00.128Z,1.47
2022-12-11T05:43:28.283Z,1.52
2022-12-11T05:45:55.219Z,1.51
2022-12-11T05:48:22.012Z,1.51
2022-12-11T05:50:58.388Z,1.53
2022-12-11T05:53:25.535Z,1.49
2022-12-11T05:55:52.305Z,1.25
2022-12-11T05:58:19.654Z,1.26
2022-12-11T06:00:47.415Z,1.23
2022-12-11T06:03:14.566Z,1.25
2022-12-11T06:05:42.251Z,1.25
2022-12-11T06:08:09.394Z,1.29
2022-12-11T06:10:36.063Z,1.18
2022-12-11T06:13:02.733Z,1.17
2022-12-11T06:15:29.400Z,1.22
2022-12-11T06:17:56.228Z,1.18
2022-12-11T06:20:23.099Z,1.17
2022-12-11T06:22:49.942Z,1.19
2022-12-11T06:25:16.953Z,1.18
2022-12-11T06:27:43.601Z,1.17
2022-12-11T06:30:11.463Z,1.31
2022-12-11T06:32:38.162Z,1.23
2022-12-11T06:35:05.410Z,1.22
2022-12-11T06:37:32.096Z,1.17
2022-12-11T06:39:58.921Z,1.22
2022-12-11T06:42:25.582Z,1.21
2022-12-11T06:44:52.240Z,1.21
2022-12-11T06:47:18.923Z,1.17
2022-12-11T06:49:45.819Z,1.12
2022-12-11T06:52:18.034Z,1.09
2022-12-11T06:54:45.261Z,1.05
2022-12-11T06:57:11.977Z,0.95
2022-12-11T06:59:39.014Z,0.95
2022-12-11T07:02:05.804Z,0.99
2022-12-11T07:04:33.189Z,0.95
2022-12-11T07:06:59.903Z,0.95
2022-12-11T07:09:26.689Z,0.94
2022-12-11T07:11:53.603Z,0.97
2022-12-11T07:14:20.761Z,0.99
2022-12-11T07:16:47.430Z,0.99
2022-12-11T07:19:14.441Z,0.99
2022-12-11T07:21:41.101Z,0.98
2022-12-11T07:24:08.398Z,1.00
2022-12-11T07:26:35.212Z,0.99
2022-12-11T07:29:01.960Z,0.99
2022-12-11T07:31:29.313Z,1.06
2022-12-11T07:34:01.843Z,1.03
2022-12-11T07:36:29.672Z,1.04
2022-12-11T07:38:56.791Z,1.05
2022-12-11T07:41:23.754Z,1.07
2022-12-11T07:43:54.132Z,1.07
2022-12-11T07:46:24.275Z,1.08
2022-12-11T07:48:51.153Z,1.06
2022-12-11T07:51:20.106Z,1.07
2022-12-11T07:53:48.662Z,1.14
2022-12-11T07:56:16.481Z,1.14
2022-12-11T07:58:43.583Z,1.12
2022-12-11T08:01:16.223Z,1.08
2022-12-11T08:03:44.734Z,1.16
2022-12-11T08:06:11.741Z,1.14
2022-12-11T08:08:39.490Z,1.23
2022-12-11T08:11:08.425Z,1.14
2022-12-11T08:13:35.931Z,0.97
2022-12-11T08:16:08.272Z,0.94
2022-12-11T08:18:36.641Z,0.98
2022-12-11T08:21:10.956Z,0.98
2022-12-11T08:23:37.898Z,0.96
2022-12-11T08:26:08.629Z,0.99
2022-12-11T08:28:35.845Z,1.02
2022-12-11T08:31:07.731Z,0.99
2022-12-11T08:33:35.006Z,1.00
2022-12-11T08:36:10.209Z,1.05
2022-12-11T08:38:37.493Z,1.00
2022-12-11T08:41:14.762Z,0.96
2022-12-11T08:43:42.308Z,0.94
2022-12-11T08:46:09.755Z,0.93
2022-12-11T08:48:37.881Z,1.01
2022-12-11T08:51:07.713Z,1.02
2022-12-11T08:53:34.995Z,1.01
2022-12-11T08:56:07.247Z,1.01
2022-12-11T08:58:34.392Z,1.07
2022-12-11T09:01:05.506Z,1.08
2022-12-11T09:03:32.307Z,1.16
2022-12-11T09:05:58.855Z,1.17
2022-12-11T09:08:25.928Z,1.16
2022-12-11T09:10:52.949Z,1.18
2022-12-11T09:13:19.706Z,1.19
2022-12-11T09:15:46.263Z,1.27
2022-12-11T09:18:13.098Z,1.15
2022-12-11T09:20:39.941Z,1.17
2022-12-11T09:23:06.810Z,1.22
2022-12-11T09:25:34.121Z,1.23
2022-12-11T09:28:01.684Z,1.33
2022-12-11T09:30:28.401Z,1.31
2022-12-11T09:32:55.607Z,1.23
2022-12-11T09:35:22.292Z,1.20
2022-12-11T09:37:49.572Z,1.19
2022-12-11T09:40:16.342Z,1.25
2022-12-11T09:42:46.807Z,1.28
2022-12-11T09:45:15.441Z,1.33
2022-12-11T09:47:50.180Z,1.38
2022-12-11T09:50:33.016Z,1.39
2022-12-11T09:53:13.154Z,1.45
2022-12-11T09:55:50.340Z,1.53
2022-12-11T09:58:40.904Z,1.53
2022-12-11T10:01:10.133Z,1.58
2022-12-11T10:03:52.284Z,1.57
2022-12-11T10:06:41.859Z,1.61
2022-12-11T10:09:40.335Z,1.60
2022-12-11T10:12:19.512Z,1.62
2022-12-11T10:15:13.525Z,1.60
2022-12-11T10:17:42.016Z,1.67
2022-12-11T10:20:33.778Z,1.71
2022-12-11T10:23:01.194Z,1.77
2022-12-11T10:25:32.975Z,1.76
2022-12-11T10:28:02.825Z,1.81
2022-12-11T10:30:37.573Z,1.93
2022-12-11T10:33:17.050Z,1.97
2022-12-11T10:35:46.875Z,2.00
2022-12-11T10:38:17.185Z,1.92
2022-12-11T10:40:47.255Z,1.98
2022-12-11T10:43:14.458Z,1.95
2022-12-11T10:45:51.034Z,1.83
2022-12-11T10:48:18.174Z,1.90
2022-12-11T10:50:57.033Z,1.88
2022-12-11T10:53:25.255Z,1.98
2022-12-11T10:55:52.801Z,2.03
2022-12-11T10:58:24.756Z,2.07
2022-12-11T11:01:16.013Z,2.02
2022-12-11T11:04:07.712Z,2.13
2022-12-11T11:06:36.482Z,2.01
2022-12-11T11:09:04.495Z,2.04
2022-12-11T11:11:38.202Z,2.18
2022-12-11T11:14:23.176Z,2.21
2022-12-11T11:16:53.304Z,2.22
2022-12-11T11:19:30.997Z,2.14
2022-12-11T11:22:01.404Z,2.19
2022-12-11T11:24:58.565Z,2.23
2022-12-11T11:27:25.652Z,2.60
2022-12-11T11:29:55.765Z,2.64
2022-12-11T11:32:23.593Z,2.37
2022-12-11T11:34:50.684Z,2.32
2022-12-11T11:37:30.959Z,2.25
2022-12-11T11:40:22.173Z,2.18
2022-12-11T11:43:06.544Z,2.29
2022-12-11T11:45:41.028Z,2.19
2022-12-11T11:48:18.095Z,2.27
2022-12-11T11:50:47.084Z,2.34
2022-12-11T11:53:20.984Z,2.36
2022-12-11T11:56:16.248Z,2.39
2022-12-11T11:59:02.674Z,2.21
2022-12-11T12:01:30.704Z,2.22
2022-12-11T12:03:58.163Z,2.21
2022-12-11T12:06:34.465Z,2.10
2022-12-11T12:09:16.728Z,2.09
2022-12-11T12:11:49.810Z,2.16
2022-12-11T12:14:51.556Z,2.15
2022-12-11T12:17:31.825Z,2.14
2022-12-11T12:20:26.795Z,2.11
2022-12-11T12:23:36.435Z,2.09
2022-12-11T12:26:18.032Z,2.10
2022-12-11T12:29:06.673Z,2.17
2022-12-11T12:32:01.464Z,2.13
2022-12-11T12:34:38.354Z,2.08
2022-12-11T12:37:13.083Z,2.11
2022-12-11T12:40:04.496Z,2.13
2022-12-11T12:42:50.201Z,2.10
2022-12-11T12:45:21.784Z,2.15
2022-12-11T12:47:53.334Z,2.25
2022-12-11T12:50:24.874Z,2.25
2022-12-11T12:52:53.434Z,2.29
2022-12-11T12:55:32.172Z,2.32
2022-12-11T12:58:05.408Z,2.26
2022-12-11T13:00:34.329Z,2.19
2022-12-11T13:03:13.675Z,2.23
2022-12-11T13:05:44.064Z,2.24
2022-12-11T13:08:13.701Z,2.32
2022-12-11T13:10:43.354Z,2.37
2022-12-11T13:13:33.004Z,2.30
2022-12-11T13:16:18.329Z,2.34
2022-12-11T13:18:48.482Z,2.23
2022-12-11T13:21:30.023Z,2.20
2022-12-11T13:24:22.194Z,2.20
2022-12-11T13:26:50.453Z,2.19
2022-12-11T13:29:36.204Z,2.13
2022-12-11T13:32:09.357Z,2.03
2022-12-11T13:34:39.527Z,1.97
2022-12-11T13:37:07.634Z,1.96
2022-12-11T13:39:36.017Z,1.93
2022-12-11T13:42:06.924Z,2.06
2022-12-11T13:44:39.199Z,2.13
2022-12-11T13:47:08.275Z,2.04
2022-12-11T13:49:37.972Z,2.05
2022-12-11T13:52:05.992Z,2.00
2022-12-11T13:54:36.531Z,1.94
2022-12-11T13:57:06.605Z,1.94
2022-12-11T13:59:39.079Z,1.97
2022-12-11T14:02:16.143Z,1.99
2022-12-11T14:04:43.544Z,1.92
2022-12-11T14:07:11.415Z,1.96
2022-12-11T14:09:43.532Z,1.96
2022-12-11T14:12:20.415Z,2.01
2022-12-11T14:14:51.906Z,1.99
2022-12-11T14:17:27.073Z,1.93
2022-12-11T14:19:55.333Z,1.94
2022-12-11T14:22:30.057Z,1.95
2022-12-11T14:25:03.915Z,1.94
2022-12-11T14:27:31.482Z,1.97
2022-12-11T14:29:58.720Z,1.93
2022-12-11T14:32:37.853Z,1.85
2022-12-11T14:35:07.235Z,1.78
2022-12-11T14:37:35.280Z,1.85
2022-12-11T14:40:04.383Z,1.95
2022-12-11T14:42:34.429Z,1.92
2022-12-11T14:45:05.885Z,1.82
2022-12-11T14:47:38.754Z,1.82
2022-12-11T14:50:10.668Z,1.72
2022-12-11T14:52:44.053Z,1.67
2022-12-11T14:55:23.365Z,1.73
2022-12-11T14:57:55.464Z,1.77
2022-12-11T15:00:26.982Z,1.69
2022-12-11T15:03:12.801Z,1.86
2022-12-11T15:05:58.735Z,1.71
2022-12-11T15:08:34.380Z,1.70
2022-12-11T15:11:10.736Z,1.70
2022-12-11T15:13:47.704Z,1.72
2022-12-11T15:16:15.896Z,1.65
2022-12-11T15:18:43.225Z,1.59
2022-12-11T15:21:12.615Z,1.79
2022-12-11T15:23:46.234Z,1.67
2022-12-11T15:26:14.978Z,1.50
2022-12-11T15:28:42.418Z,1.57
2022-12-11T15:31:28.328Z,1.43
2022-12-11T15:33:56.112Z,1.35
2022-12-11T15:36:31.116Z,1.28
2022-12-11T15:38:59.061Z,1.24
2022-12-11T15:41:26.344Z,1.32
2022-12-11T15:43:58.909Z,1.35
2022-12-11T15:46:27.075Z,1.34
2022-12-11T15:48:55.927Z,1.37
2022-12-11T15:51:23.575Z,1.30
2022-12-11T15:53:50.674Z,1.36
2022-12-11T15:56:18.639Z,1.37
2022-12-11T15:58:47.114Z,1.33
2022-12-11T16:01:14.548Z,1.38
2022-12-11T16:03:41.943Z,1.35
2022-12-11T16:06:12.758Z,1.41
2022-12-11T16:08:40.291Z,1.39
2022-12-11T16:11:07.505Z,1.37
2022-12-11T16:13:34.873Z,1.35
2022-12-11T16:16:01.839Z,1.31
2022-12-11T16:18:29.011Z,1.27
2022-12-11T16:20:56.205Z,1.25
2022-12-11T16:23:24.206Z,1.23
2022-12-11T16:25:52.104Z,1.18
2022-12-11T16:28:21.384Z,1.21
2022-12-11T16:30:49.123Z,1.22
2022-12-11T16:33:16.364Z,1.20
2022-12-11T16:35:43.665Z,1.18
2022-12-11T16:38:11.953Z,1.20
2022-12-11T16:40:39.226Z,1.19
2022-12-11T16:43:06.218Z,1.06
2022-12-11T16:45:33.651Z,1.11
2022-12-11T16:48:04.039Z,1.13
2022-12-11T16:50:32.173Z,1.09
2022-12-11T16:52:58.887Z,1.12
2022-12-11T16:55:25.649Z,1.13
2022-12-11T16:57:52.314Z,1.14
2022-12-11T17:00:19.840Z,1.18
2022-12-11T17:02:46.639Z,1.14
2022-12-11T17:05:14.084Z,1.12
2022-12-11T17:07:40.936Z,1.07
2022-12-11T17:10:08.432Z,1.10
2022-12-11T17:12:35.125Z,1.03
2022-12-11T17:15:02.055Z,1.09
2022-12-11T17:17:28.671Z,1.08
2022-12-11T17:19:55.797Z,1.11
2022-12-11T17:22:23.690Z,1.05
2022-12-11T17:24:50.879Z,1.11
2022-12-11T17:27:17.795Z,1.05
2022-12-11T17:29:45.084Z,1.05
2022-12-11T17:32:11.787Z,1.08
2022-12-11T17:34:38.890Z,1.06
2022-12-11T17:37:06.483Z,1.04
2022-12-11T17:39:33.557Z,1.09
2022-12-11T17:42:00.711Z,1.08
2022-12-11T17:44:30.465Z,1.11
2022-12-11T17:47:01.806Z,1.06
2022-12-11T17:49:30.430Z,1.03
2022-12-11T17:51:57.202Z,0.99
2022-12-11T17:58:37.698Z,1.06
2022-12-11T18:01:09.388Z,1.03
2022-12-11T18:03:37.352Z,1.04
2022-12-11T18:06:07.083Z,1.04
2022-12-11T18:08:34.808Z,1.04
2022-12-11T18:11:16.105Z,0.99
2022-12-11T18:13:44.094Z,0.95
2022-12-11T18:16:13.611Z,0.97
2022-12-11T18:18:40.656Z,0.94
2022-12-11T18:21:07.450Z,0.91
2022-12-11T18:23:34.542Z,0.89
2022-12-11T18:26:01.206Z,0.86
2022-12-11T18:28:30.326Z,0.85
2022-12-11T18:30:59.600Z,0.80
2022-12-11T18:33:27.109Z,0.80
2022-12-11T18:35:53.766Z,0.80
2022-12-11T18:38:20.420Z,0.82
2022-12-11T18:40:47.063Z,0.79
2022-12-11T18:43:13.898Z,0.82
2022-12-11T18:45:41.475Z,0.80
2022-12-11T18:48:08.896Z,0.79
2022-12-11T18:50:36.081Z,0.75
2022-12-11T18:53:03.961Z,0.76
2022-12-11T18:55:30.879Z,0.77
2022-12-11T18:57:57.971Z,0.81
2022-12-11T19:00:25.145Z,0.75
2022-12-11T19:02:52.608Z,0.74
2022-12-11T19:05:19.403Z,0.78
2022-12-11T19:07:46.226Z,0.75
2022-12-11T19:10:13.425Z,0.73
2022-12-11T19:12:40.471Z,0.72
2022-12-11T19:15:07.585Z,0.73
2022-12-11T19:17:34.327Z,0.76
2022-12-11T19:20:13.607Z,0.74
2022-12-11T19:28:01.930Z,0.74
2022-12-11T19:30:28.790Z,0.67
2022-12-11T19:32:55.491Z,0.69
2022-12-11T19:35:22.273Z,0.70
2022-12-11T19:37:48.921Z,0.67
2022-12-11T19:40:16.119Z,0.71
2022-12-11T19:42:42.811Z,0.61
2022-12-11T19:45:10.811Z,0.65
2022-12-11T19:47:37.698Z,0.69
2022-12-11T19:50:05.038Z,0.67
2022-12-11T19:52:31.836Z,0.60
2022-12-11T19:55:06.541Z,0.57
2022-12-11T19:57:33.822Z,0.58
2022-12-11T20:00:01.212Z,0.58
2022-12-11T20:02:28.150Z,0.58
2022-12-11T20:04:55.050Z,0.58
2022-12-11T20:07:26.128Z,0.53
2022-12-11T20:09:57.171Z,0.51
2022-12-11T20:12:24.504Z,0.45
2022-12-11T20:14:51.675Z,0.58
2022-12-11T20:17:18.379Z,0.59
2022-12-11T20:19:45.405Z,0.56
2022-12-11T20:22:12.254Z,0.52
2022-12-11T20:24:39.382Z,0.60
2022-12-11T20:27:06.089Z,0.55
2022-12-11T20:29:33.197Z,0.61
2022-12-11T20:32:00.479Z,0.56
2022-12-11T20:34:28.108Z,0.57
2022-12-11T20:36:55.619Z,0.56
2022-12-11T20:39:22.669Z,0.54
2022-12-11T20:41:50.762Z,0.53
2022-12-11T20:44:17.616Z,0.51
2022-12-11T20:46:44.525Z,0.55
2022-12-11T20:49:13.192Z,0.53
2022-12-11T20:51:44.066Z,0.52
2022-12-11T20:54:11.026Z,0.52
2022-12-11T20:56:37.908Z,0.54
2022-12-11T20:59:04.873Z,0.53
2022-12-11T21:01:33.067Z,0.59
2022-12-11T21:04:00.495Z,0.60
2022-12-11T21:06:31.227Z,0.59
2022-12-11T21:09:25.124Z,0.59
2022-12-11T21:11:52.389Z,0.55
2022-12-11T21:14:20.092Z,0.59
2022-12-11T21:16:47.132Z,0.56
2022-12-11T21:19:17.109Z,0.58
2022-12-11T21:21:45.237Z,0.58
2022-12-11T21:28:24.313Z,0.60
2022-12-11T21:30:51.288Z,0.63
2022-12-11T21:33:17.997Z,0.65
2022-12-11T21:35:44.857Z,0.70
2022-12-11T21:38:11.514Z,0.65
2022-12-11T21:40:38.118Z,0.65
2022-12-11T21:43:04.734Z,0.63
2022-12-11T21:46:00.354Z,0.67
2022-12-11T21:48:21.363Z,0.63
2022-12-11T21:50:48.051Z,0.59
2022-12-11T21:53:14.832Z,0.56
2022-12-11T21:55:41.938Z,0.59
2022-12-11T21:58:09.529Z,0.59
2022-12-11T22:00:38.125Z,0.53
2022-12-11T22:03:06.082Z,0.48
2022-12-11T22:05:32.970Z,0.57
2022-12-11T22:07:59.846Z,0.51
2022-12-11T22:10:28.078Z,0.48
2022-12-11T22:17:26.475Z,0.52
2022-12-11T22:19:53.701Z,0.51
2022-12-11T22:22:20.501Z,0.55
2022-12-11T22:24:47.411Z,0.51
2022-12-11T22:27:15.900Z,0.53
2022-12-11T22:29:45.977Z,0.54
2022-12-11T22:32:12.718Z,0.51
2022-12-11T22:34:40.485Z,0.51
2022-12-11T22:37:07.131Z,0.49
2022-12-11T22:39:33.830Z,0.48
2022-12-11T22:42:00.402Z,0.52
2022-12-11T22:44:27.357Z,0.51
2022-12-11T22:46:54.010Z,0.54
2022-12-11T22:49:20.847Z,0.53
2022-12-11T22:51:48.021Z,0.50
2022-12-11T22:54:14.781Z,0.51
2022-12-11T22:56:41.928Z,0.40
2022-12-11T22:59:08.645Z,0.44
2022-12-11T23:01:35.313Z,0.49
2022-12-11T23:04:02.086Z,0.47
2022-12-11T23:06:28.647Z,0.57
2022-12-11T23:08:58.661Z,0.52
2022-12-11T23:11:28.716Z,0.47
2022-12-11T23:13:56.009Z,0.51
2022-12-11T23:16:24.197Z,0.50
2022-12-11T23:18:51.082Z,0.41
2022-12-11T23:21:17.935Z,0.38
2022-12-11T23:23:44.591Z,0.44
2022-12-11T23:26:13.113Z,0.38
2022-12-11T23:28:40.115Z,0.36
2022-12-11T23:31:07.122Z,0.38
2022-12-11T23:33:33.799Z,0.40
2022-12-11T23:36:00.427Z,0.41
2022-12-11T23:38:27.316Z,0.34
2022-12-11T23:40:54.047Z,0.34
2022-12-11T23:43:20.597Z,0.44
2022-12-11T23:45:47.388Z,0.46
2022-12-11T23:48:14.308Z,0.42
2022-12-11T23:50:42.656Z,0.41
2022-12-11T23:53:09.522Z,0.41
2022-12-11T23:55:39.253Z,0.41
2022-12-11T23:58:06.334Z,0.40
